Time;durP1;ratioP1;P1;durP2;ratioP2;P2;SDS_P1;SDS_P2;PMS_P1;PMS_P2;Temp;Humidity;BMP_temperature;BMP_pressure;BME280_temperature;BME280_humidity;BME280_pressure;Samples;Min_cycle;Max_cycle;Signal;HPM_P1;HPM_P2
2023/09/22 00:02:46;;;;;;;23.88;6.15;;;21.10;99.90;;;;;;5010605;28;20068;-62
2023/09/22 00:05:52;;;;;;;23.08;6.63;;;21.10;99.90;;;;;;5006065;28;20053;-62
2023/09/22 00:08:56;;;;;;;20.17;6.43;;;21.20;99.90;;;;;;5005507;28;20520;-61
2023/09/22 00:12:00;;;;;;;20.90;6.75;;;21.20;99.90;;;;;;5013139;28;20064;-61
2023/09/22 00:15:04;;;;;;;24.60;6.50;;;21.20;99.90;;;;;;5006719;28;20045;-62
2023/09/22 00:18:08;;;;;;;23.85;6.88;;;21.20;99.90;;;;;;5014021;28;20037;-62
2023/09/22 00:21:12;;;;;;;26.60;7.35;;;21.20;99.90;;;;;;5013296;28;20397;-61
2023/09/22 00:24:16;;;;;;;22.63;7.70;;;21.20;99.90;;;;;;5011539;28;20535;-61
2023/09/22 00:27:21;;;;;;;25.77;7.28;;;21.10;99.90;;;;;;5013607;28;20045;-62
2023/09/22 00:30:26;;;;;;;23.92;6.03;;;21.10;99.90;;;;;;5013044;28;20049;-62
2023/09/22 00:33:30;;;;;;;20.27;6.30;;;21.10;99.90;;;;;;5013136;28;20775;-62
2023/09/22 00:36:34;;;;;;;18.60;6.35;;;21.10;99.90;;;;;;5013630;28;20499;-61
2023/09/22 00:39:38;;;;;;;24.58;7.00;;;21.10;99.90;;;;;;5013366;28;20046;-62
2023/09/22 00:42:43;;;;;;;23.15;7.35;;;21.00;99.90;;;;;;5007851;28;20053;-61
2023/09/22 00:45:50;;;;;;;22.42;7.32;;;21.00;99.90;;;;;;5013369;28;20045;-62
2023/09/22 00:48:56;;;;;;;23.40;7.80;;;21.00;99.90;;;;;;5013249;28;20053;-61
2023/09/22 00:52:01;;;;;;;29.27;7.65;;;21.00;99.90;;;;;;5012019;28;20054;-61
2023/09/22 00:55:06;;;;;;;21.15;7.68;;;21.00;99.90;;;;;;5012888;28;20041;-61
2023/09/22 00:58:11;;;;;;;20.85;7.22;;;20.90;99.90;;;;;;5013352;28;20481;-62
2023/09/22 01:01:15;;;;;;;24.02;7.13;;;20.90;99.90;;;;;;5011857;28;20045;-62
2023/09/22 01:04:20;;;;;;;24.25;7.82;;;20.90;99.90;;;;;;5012826;28;20049;-61
2023/09/22 01:07:25;;;;;;;19.83;7.55;;;20.90;99.90;;;;;;5012873;28;20048;-61
2023/09/22 01:10:40;;;;;;;31.95;7.82;;;20.90;99.90;;;;;;5011682;28;20507;-61
2023/09/22 01:13:44;;;;;;;25.35;7.28;;;20.90;99.90;;;;;;5012878;28;20044;-60
2023/09/22 01:16:51;;;;;;;31.30;7.97;;;20.90;99.90;;;;;;5007208;28;20053;-61
2023/09/22 01:19:55;;;;;;;18.02;7.20;;;20.90;99.90;;;;;;5007656;28;20515;-61
2023/09/22 01:22:59;;;;;;;22.20;7.50;;;20.90;99.90;;;;;;5012186;28;20041;-61
2023/09/22 01:26:03;;;;;;;20.88;7.15;;;20.90;99.90;;;;;;5008571;28;20049;-62
2023/09/22 01:29:08;;;;;;;17.30;6.82;;;20.90;99.90;;;;;;5008256;28;20188;-61
2023/09/22 01:32:12;;;;;;;18.83;7.05;;;20.90;99.90;;;;;;5012639;28;20045;-61
2023/09/22 01:35:16;;;;;;;19.73;7.38;;;20.90;99.90;;;;;;5008010;28;20037;-61
2023/09/22 01:38:23;;;;;;;23.15;6.50;;;20.90;99.90;;;;;;5012469;28;20044;-60
2023/09/22 01:41:27;;;;;;;23.42;6.57;;;20.90;99.90;;;;;;5012343;28;20045;-60
2023/09/22 01:44:31;;;;;;;21.70;7.00;;;20.90;99.90;;;;;;5008528;28;20408;-61
2023/09/22 01:47:36;;;;;;;26.00;7.68;;;20.90;99.90;;;;;;5012364;28;20109;-61
2023/09/22 01:50:41;;;;;;;24.27;5.90;;;20.90;99.90;;;;;;5004253;28;20049;-60
2023/09/22 01:53:45;;;;;;;17.63;6.53;;;21.00;99.90;;;;;;5007941;28;20396;-59
2023/09/22 01:56:50;;;;;;;27.05;6.88;;;20.90;99.90;;;;;;5011927;28;20041;-61
2023/09/22 01:59:54;;;;;;;22.95;6.65;;;20.90;99.90;;;;;;5011374;28;20048;-62
2023/09/22 02:02:58;;;;;;;26.65;7.63;;;21.00;99.90;;;;;;5009065;28;20512;-61
2023/09/22 02:06:04;;;;;;;20.13;6.45;;;20.90;99.90;;;;;;5011906;28;20060;-61
2023/09/22 02:09:08;;;;;;;20.40;6.15;;;21.00;99.90;;;;;;5011892;28;20057;-60
2023/09/22 02:12:11;;;;;;;20.83;6.55;;;21.10;99.90;;;;;;5011851;28;20053;-62
2023/09/22 02:15:16;;;;;;;20.63;6.18;;;21.20;99.90;;;;;;5011388;28;20523;-61
2023/09/22 02:18:23;;;;;;;23.92;6.22;;;21.30;99.90;;;;;;5010877;28;20044;-61
2023/09/22 02:21:28;;;;;;;15.40;5.28;;;21.40;99.90;;;;;;5010356;28;20041;-61
2023/09/22 02:24:32;;;;;;;22.33;7.00;;;21.40;99.90;;;;;;5011391;28;20060;-61
2023/09/22 02:27:36;;;;;;;14.77;6.38;;;21.50;99.90;;;;;;5008621;28;20061;-62
2023/09/22 02:30:41;;;;;;;21.42;6.25;;;21.50;99.90;;;;;;5004532;28;20049;-62
2023/09/22 02:33:44;;;;;;;15.82;5.35;;;21.50;99.90;;;;;;5010711;28;20417;-62
2023/09/22 02:36:49;;;;;;;21.40;6.30;;;21.60;99.90;;;;;;5008990;28;20420;-61
2023/09/22 02:39:54;;;;;;;25.05;6.85;;;21.50;99.90;;;;;;5006092;28;20540;-62
2023/09/22 02:42:57;;;;;;;20.52;5.50;;;21.40;99.90;;;;;;5011549;28;20061;-62
2023/09/22 02:46:04;;;;;;;20.30;6.13;;;21.50;99.90;;;;;;5009766;28;20048;-62
2023/09/22 02:49:08;;;;;;;21.27;5.78;;;21.40;99.90;;;;;;5007896;28;20053;-62
2023/09/22 02:52:13;;;;;;;15.73;5.75;;;21.40;99.90;;;;;;5008358;28;20069;-61
2023/09/22 02:55:18;;;;;;;16.33;5.60;;;21.50;99.90;;;;;;5009064;28;20048;-61
2023/09/22 02:58:23;;;;;;;21.55;5.43;;;21.50;99.90;;;;;;5009671;28;20060;-60
2023/09/22 03:01:28;;;;;;;24.35;6.85;;;21.60;99.90;;;;;;5010232;28;20531;-61
2023/09/22 03:04:36;;;;;;;16.15;5.72;;;21.50;99.90;;;;;;5009248;28;20041;-62
2023/09/22 03:07:40;;;;;;;21.52;5.88;;;21.50;99.90;;;;;;5003556;28;20045;-61
2023/09/22 03:10:47;;;;;;;22.17;5.28;;;21.50;99.90;;;;;;5010420;28;20057;-59
2023/09/22 03:13:51;;;;;;;20.85;6.22;;;21.50;99.90;;;;;;4999559;28;20042;-61
2023/09/22 03:16:57;;;;;;;16.50;5.28;;;21.60;99.90;;;;;;5005479;28;20109;-62
2023/09/22 03:20:01;;;;;;;21.98;6.38;;;21.60;99.90;;;;;;5011091;28;20049;-60
2023/09/22 03:23:06;;;;;;;18.33;5.90;;;21.50;99.90;;;;;;5009540;28;20397;-62
2023/09/22 03:26:11;;;;;;;22.00;6.97;;;21.50;99.90;;;;;;5018037;28;20069;-60
2023/09/22 03:29:15;;;;;;;25.63;8.60;;;21.10;99.90;;;;;;5010218;28;20404;-62
2023/09/22 03:32:21;;;;;;;25.10;7.93;;;20.70;99.90;;;;;;5010811;28;20053;-62
2023/09/22 03:35:26;;;;;;;25.90;7.88;;;20.40;99.90;;;;;;5008200;28;20049;-62
2023/09/22 03:38:31;;;;;;;29.23;7.35;;;20.30;99.90;;;;;;5009791;28;20057;-62
2023/09/22 03:41:35;;;;;;;20.45;8.18;;;20.00;99.90;;;;;;5006170;28;20511;-59
2023/09/22 03:44:39;;;;;;;16.85;8.00;;;19.90;99.90;;;;;;5010509;28;20499;-60
2023/09/22 03:47:43;;;;;;;20.73;7.88;;;19.80;99.90;;;;;;5013813;28;20044;-62
2023/09/22 03:50:47;;;;;;;20.10;7.90;;;19.80;99.90;;;;;;5010246;28;20337;-62
2023/09/22 03:53:51;;;;;;;28.48;8.50;;;19.70;99.90;;;;;;5007388;28;20045;-61
2023/09/22 03:56:55;;;;;;;20.33;8.40;;;19.70;99.90;;;;;;5013755;28;20068;-62
2023/09/22 03:59:59;;;;;;;23.98;8.50;;;19.70;99.90;;;;;;5014525;28;20062;-60
2023/09/22 04:03:04;;;;;;;20.00;7.80;;;19.70;99.90;;;;;;5009167;28;20045;-62
2023/09/22 04:06:08;;;;;;;21.27;8.23;;;19.60;99.90;;;;;;5012991;28;20048;-61
2023/09/22 04:09:12;;;;;;;26.63;8.50;;;19.60;99.90;;;;;;5010633;28;20049;-62
2023/09/22 04:12:16;;;;;;;18.55;8.63;;;19.60;99.90;;;;;;5013983;28;20045;-62
2023/09/22 04:15:22;;;;;;;16.63;8.48;;;19.60;99.90;;;;;;5013410;28;20041;-62
2023/09/22 04:18:29;;;;;;;22.48;8.80;;;19.60;99.90;;;;;;5006245;28;20034;-61
2023/09/22 04:21:35;;;;;;;26.70;9.70;;;19.60;99.90;;;;;;5013854;28;20040;-62
2023/09/22 04:24:47;;;;;;;25.50;8.60;;;19.50;99.90;;;;;;5013452;28;20052;-61
2023/09/22 04:27:54;;;;;;;32.15;9.95;;;19.40;99.90;;;;;;5009375;28;20045;-62
2023/09/22 04:31:01;;;;;;;20.02;9.15;;;19.40;99.90;;;;;;5005934;28;20053;-61
2023/09/22 04:34:05;;;;;;;22.73;9.85;;;19.40;99.90;;;;;;5008684;28;20048;-62
2023/09/22 04:37:08;;;;;;;27.75;10.68;;;19.40;99.90;;;;;;5013490;28;20061;-62
2023/09/22 04:40:25;;;;;;;33.72;10.80;;;19.30;99.90;;;;;;5010075;28;20041;-62
2023/09/22 04:43:29;;;;;;;27.98;9.90;;;19.20;99.90;;;;;;5013407;28;20065;-60
2023/09/22 04:46:35;;;;;;;25.80;10.20;;;19.30;99.90;;;;;;5013092;28;20041;-61
2023/09/22 04:49:39;;;;;;;27.08;9.60;;;19.30;99.90;;;;;;5006391;28;20053;-61
2023/09/22 04:52:45;;;;;;;24.52;9.63;;;19.40;99.90;;;;;;5013439;28;20049;-62
2023/09/22 04:55:58;;;;;;;22.98;9.25;;;19.40;99.90;;;;;;5012151;28;20049;-62
2023/09/22 04:59:04;;;;;;;28.67;10.15;;;19.40;99.90;;;;;;5006044;28;20053;-61
2023/09/22 05:02:20;;;;;;;27.50;10.55;;;19.40;99.90;;;;;;5013061;28;20114;-61
2023/09/22 05:05:24;;;;;;;21.60;9.30;;;19.40;99.90;;;;;;5012779;28;20049;-62
2023/09/22 05:08:28;;;;;;;22.05;9.73;;;19.30;99.90;;;;;;5009067;28;20076;-62
2023/09/22 05:11:32;;;;;;;27.75;10.80;;;19.20;99.90;;;;;;5012920;28;20052;-62
2023/09/22 05:14:36;;;;;;;26.48;9.93;;;19.20;99.90;;;;;;5012257;28;20049;-61
2023/09/22 05:17:41;;;;;;;29.33;11.05;;;19.20;99.90;;;;;;5007841;28;20033;-62
2023/09/22 05:20:45;;;;;;;24.25;11.88;;;19.20;99.90;;;;;;5012793;28;20404;-62
2023/09/22 05:23:49;;;;;;;25.77;11.32;;;19.20;99.90;;;;;;5012556;28;20045;-60
2023/09/22 05:26:53;;;;;;;25.42;11.95;;;19.20;99.90;;;;;;5005915;28;20045;-60
2023/09/22 05:29:57;;;;;;;27.58;11.98;;;19.20;99.90;;;;;;5012699;28;20044;-60
2023/09/22 05:33:06;;;;;;;33.47;12.77;;;19.20;99.90;;;;;;5010109;28;20057;-61
2023/09/22 05:36:11;;;;;;;33.40;13.13;;;19.30;99.90;;;;;;5010959;28;20053;-62
2023/09/22 05:39:15;;;;;;;31.92;12.93;;;19.30;99.90;;;;;;5011415;28;20037;-60
2023/09/22 05:42:19;;;;;;;30.65;13.30;;;19.30;99.90;;;;;;5009467;28;20048;-61
2023/09/22 05:45:23;;;;;;;33.22;15.55;;;19.40;99.90;;;;;;5011972;28;20416;-62
2023/09/22 05:48:27;;;;;;;33.80;13.98;;;19.60;99.90;;;;;;5005114;28;20409;-62
2023/09/22 05:51:32;;;;;;;32.75;12.82;;;19.70;99.90;;;;;;5012135;28;20044;-62
2023/09/22 05:54:36;;;;;;;32.42;13.68;;;19.90;99.90;;;;;;5011442;28;20041;-62
2023/09/22 05:57:40;;;;;;;35.00;13.93;;;20.10;99.90;;;;;;5008223;28;20049;-60
2023/09/22 06:00:44;;;;;;;39.05;13.30;;;20.30;99.90;;;;;;5007871;28;20056;-61
2023/09/22 06:03:47;;;;;;;34.88;14.82;;;20.60;99.90;;;;;;5010433;28;20045;-62
2023/09/22 06:06:53;;;;;;;38.83;17.13;;;20.90;99.90;;;;;;5006321;28;20033;-61
2023/09/22 06:09:57;;;;;;;34.45;15.60;;;21.10;99.90;;;;;;5005678;28;20053;-61
2023/09/22 06:13:02;;;;;;;35.70;14.85;;;21.50;99.90;;;;;;5010942;28;20045;-60
2023/09/22 06:16:06;;;;;;;36.80;12.93;;;22.10;99.90;;;;;;5005757;28;20049;-62
2023/09/22 06:19:10;;;;;;;27.30;8.98;;;22.30;99.90;;;;;;5006218;28;20040;-62
2023/09/22 06:22:14;;;;;;;27.42;9.38;;;22.70;99.90;;;;;;5007577;28;20033;-62
2023/09/22 06:25:21;;;;;;;25.20;8.55;;;23.20;99.90;;;;;;5007553;28;20049;-61
2023/09/22 06:28:25;;;;;;;20.70;9.00;;;23.60;99.90;;;;;;5010768;28;20412;-61
2023/09/22 06:31:29;;;;;;;20.65;8.02;;;24.00;99.90;;;;;;5010756;28;20049;-61
2023/09/22 06:34:34;;;;;;;28.63;9.43;;;23.80;99.90;;;;;;5004835;28;20048;-61
2023/09/22 06:37:40;;;;;;;25.90;9.27;;;23.70;99.90;;;;;;5007206;28;20516;-62
2023/09/22 06:40:45;;;;;;;27.58;8.32;;;23.50;99.90;;;;;;5008355;28;20412;-61
2023/09/22 06:43:49;;;;;;;28.27;9.40;;;23.30;99.90;;;;;;5001722;28;20044;-62
2023/09/22 06:46:53;;;;;;;32.00;9.13;;;23.30;99.90;;;;;;5005357;28;20532;-62
2023/09/22 06:49:59;;;;;;;35.13;10.43;;;23.20;99.90;;;;;;5001721;28;20400;-62
2023/09/22 06:53:04;;;;;;;21.77;8.20;;;23.20;99.90;;;;;;5002724;28;20041;-62
2023/09/22 06:56:10;;;;;;;27.02;8.13;;;23.30;99.90;;;;;;5006473;28;20041;-62
2023/09/22 06:59:16;;;;;;;27.55;7.97;;;23.60;99.90;;;;;;5002401;23;20065;-54
2023/09/22 07:02:20;;;;;;;26.08;7.53;;;23.90;99.90;;;;;;4987819;28;20049;-51
2023/09/22 07:05:24;;;;;;;24.33;7.68;;;23.90;99.90;;;;;;4988299;28;20050;-51
2023/09/22 07:08:29;;;;;;;19.90;7.00;;;23.80;99.90;;;;;;4987294;28;20405;-56
2023/09/22 07:11:39;;;;;;;31.05;7.80;;;24.10;99.90;;;;;;4967346;28;20061;-53
2023/09/22 07:14:43;;;;;;;26.77;7.43;;;24.20;99.90;;;;;;4963208;28;20070;-57
2023/09/22 07:17:48;;;;;;;26.60;7.20;;;24.60;99.90;;;;;;4976335;28;20042;-53
2023/09/22 07:20:53;;;;;;;28.77;6.65;;;24.90;99.90;;;;;;4972084;28;20057;-53
2023/09/22 07:23:58;;;;;;;20.20;5.70;;;25.80;99.90;;;;;;4977043;28;20041;-56
2023/09/22 07:27:02;;;;;;;21.42;5.82;;;26.30;99.90;;;;;;4970659;28;20406;-54
2023/09/22 07:30:09;;;;;;;25.10;6.32;;;26.30;99.90;;;;;;4973102;28;20041;-51
2023/09/22 07:33:13;;;;;;;26.92;6.80;;;25.40;99.90;;;;;;4972674;28;20050;-53
2023/09/22 07:36:19;;;;;;;25.75;6.93;;;25.40;99.90;;;;;;4974316;28;20050;-51
2023/09/22 07:39:23;;;;;;;17.92;5.40;;;26.40;99.90;;;;;;4980600;28;20505;-53
2023/09/22 07:42:31;;;;;;;20.80;6.20;;;26.80;99.90;;;;;;4976085;28;20041;-57
2023/09/22 07:45:35;;;;;;;22.98;6.40;;;27.70;99.90;;;;;;4972877;28;20062;-57
2023/09/22 07:48:39;;;;;;;18.50;5.07;;;28.30;99.90;;;;;;4987479;28;20046;-59
2023/09/22 07:51:43;;;;;;;24.80;5.57;;;29.70;99.90;;;;;;4972499;28;20115;-51
2023/09/22 07:54:48;;;;;;;21.55;5.18;;;29.10;99.90;;;;;;4967893;28;20050;-57
2023/09/22 07:57:52;;;;;;;19.48;5.90;;;28.40;99.90;;;;;;4968697;28;20401;-54
2023/09/22 08:00:59;;;;;;;21.27;5.45;;;27.30;99.90;;;;;;4968204;28;20057;-60
2023/09/22 08:04:23;;;;;;;18.38;5.35;;;27.30;99.90;;;;;;4972179;28;20038;-54
2023/09/22 08:07:27;;;;;;;18.55;6.18;;;28.00;99.90;;;;;;4974817;28;20037;-54
2023/09/22 08:10:31;;;;;;;26.55;6.53;;;26.50;99.90;;;;;;4974709;28;20532;-56
2023/09/22 08:13:35;;;;;;;21.88;7.13;;;25.40;99.90;;;;;;4974603;28;20549;-54
2023/09/22 08:16:41;;;;;;;24.52;7.55;;;24.80;99.90;;;;;;4974036;28;20050;-56
2023/09/22 08:19:45;;;;;;;21.80;6.88;;;24.50;99.90;;;;;;4974267;28;20049;-51
2023/09/22 08:22:49;;;;;;;20.35;6.95;;;24.60;99.90;;;;;;4974000;28;20038;-52
2023/09/22 08:25:56;;;;;;;27.85;6.88;;;24.40;99.90;;;;;;4971921;28;20054;-53
2023/09/22 08:29:00;;;;;;;17.17;6.18;;;24.70;99.90;;;;;;4976429;28;20050;-54
2023/09/22 08:32:04;;;;;;;25.08;5.78;;;25.10;99.90;;;;;;4977625;28;20053;-56
2023/09/22 08:35:10;;;;;;;20.90;6.07;;;25.10;99.90;;;;;;4980033;28;20522;-52
2023/09/22 08:38:14;;;;;;;16.52;5.78;;;25.60;99.90;;;;;;4972007;28;20037;-57
2023/09/22 08:41:19;;;;;;;21.95;6.30;;;25.80;99.90;;;;;;4976100;28;20042;-56
2023/09/22 08:44:25;;;;;;;23.42;6.30;;;26.00;99.90;;;;;;4973637;28;20062;-53
2023/09/22 08:47:28;;;;;;;16.92;5.03;;;26.30;99.90;;;;;;4975722;28;20410;-58
2023/09/22 08:50:33;;;;;;;18.60;5.72;;;27.00;99.90;;;;;;4973300;28;20065;-57
2023/09/22 08:53:37;;;;;;;19.55;4.97;;;26.80;99.90;;;;;;4972732;28;20050;-57
2023/09/22 08:56:41;;;;;;;13.95;4.60;;;26.70;99.90;;;;;;4975308;28;20042;-56
2023/09/22 08:59:44;;;;;;;20.35;5.35;;;26.10;99.90;;;;;;4975237;28;20049;-57
2023/09/22 09:02:51;;;;;;;16.90;4.90;;;25.30;99.90;;;;;;4970648;28;20045;-57
2023/09/22 09:06:10;;;;;;;15.88;4.93;;;24.80;99.90;;;;;;4974579;28;20046;-57
2023/09/22 09:09:14;;;;;;;16.35;5.82;;;24.80;99.90;;;;;;4973263;28;20413;-57
2023/09/22 09:12:17;;;;;;;12.60;3.88;;;25.00;99.90;;;;;;4973352;28;20066;-52
2023/09/22 09:15:25;;;;;;;15.35;4.78;;;25.60;99.90;;;;;;4971847;28;20057;-50
2023/09/22 09:18:29;;;;;;;15.98;4.32;;;25.60;99.90;;;;;;4974045;28;20054;-53
2023/09/22 09:21:33;;;;;;;15.98;4.25;;;25.80;99.90;;;;;;4973765;28;20429;-52
2023/09/22 09:24:38;;;;;;;18.52;5.00;;;26.00;99.90;;;;;;4973456;28;20127;-54
2023/09/22 09:27:43;;;;;;;18.02;3.92;;;26.50;99.90;;;;;;4980291;28;20512;-54
2023/09/22 09:30:52;;;;;;;12.40;3.50;;;28.30;99.90;;;;;;4968432;28;20615;-55
2023/09/22 09:33:55;;;;;;;13.05;3.80;;;29.30;99.90;;;;;;4971908;28;20053;-52
2023/09/22 09:37:13;;;;;;;12.10;3.85;;;29.10;99.90;;;;;;4964119;28;20525;-55
2023/09/22 09:40:22;;;;;;;14.02;4.05;;;28.00;99.90;;;;;;4971703;28;20504;-56
2023/09/22 09:43:27;;;;;;;21.08;4.13;;;27.40;99.90;;;;;;4976634;28;20057;-57
2023/09/22 09:46:33;;;;;;;20.63;4.28;;;27.40;99.90;;;;;;4971351;28;20545;-56
2023/09/22 09:49:39;;;;;;;12.80;3.65;;;27.80;99.90;;;;;;4969215;28;20058;-54
2023/09/22 09:52:51;;;;;;;13.60;3.42;;;28.90;99.90;;;;;;4977078;28;20049;-56
2023/09/22 09:56:00;;;;;;;14.80;3.53;;;28.70;99.90;;;;;;4966592;28;20037;-56
2023/09/22 09:59:05;;;;;;;10.80;3.58;;;27.90;99.90;;;;;;4973095;28;20046;-55
2023/09/22 10:02:11;;;;;;;14.52;3.53;;;27.00;99.90;;;;;;4967967;28;20038;-53
2023/09/22 10:05:24;;;;;;;11.63;3.20;;;26.20;99.90;;;;;;4968559;28;20061;-54
2023/09/22 10:08:29;;;;;;;8.27;2.80;;;25.60;99.90;;;;;;4970631;28;20505;-53
2023/09/22 10:11:33;;;;;;;16.50;3.70;;;25.50;99.90;;;;;;4971519;28;20046;-56
2023/09/22 10:14:42;;;;;;;8.32;3.28;;;25.20;99.90;;;;;;4971790;28;20045;-52
2023/09/22 10:17:55;;;;;;;8.32;2.80;;;25.40;99.90;;;;;;4971576;28;20405;-52
2023/09/22 10:21:00;;;;;;;11.35;3.05;;;25.70;99.90;;;;;;4972635;28;20039;-56
2023/09/22 10:24:29;;;;;;;12.45;2.95;;;25.90;99.90;;;;;;4966942;28;20065;-54
2023/09/22 10:27:56;;;;;;;9.30;3.17;;;25.70;99.90;;;;;;4969819;28;20037;-52
2023/09/22 10:31:02;;;;;;;12.25;2.95;;;25.40;99.90;;;;;;4972131;28;20041;-51
2023/09/22 10:34:44;;;;;;;13.70;3.40;;;25.20;99.90;;;;;;4966349;28;20101;-54
2023/09/22 10:38:00;;;;;;;11.80;3.33;;;25.10;99.90;;;;;;4970915;28;20505;-56
2023/09/22 10:41:04;;;;;;;9.13;3.42;;;24.70;99.90;;;;;;4967592;28;20034;-54
2023/09/22 10:44:08;;;;;;;15.02;3.63;;;24.50;99.90;;;;;;4967240;28;20042;-51
2023/09/22 10:47:12;;;;;;;12.73;3.50;;;24.60;99.90;;;;;;4966632;28;20508;-57
